Pagrindinis puslapis
METAR-TAF:

METAR-TAF

Oro uostai :

Ohio State University Airport

Kolumbas, Ohajas, Jungtinės Amerikos Valstijos

platuma: 40-04-41N, ilguma: 083-04-41W, Aukštis: 275 m

Dabartinis oras

Ataskaita buvo paskelbta 56 minutes, ne 10:53 UTC
Ramus vėjas
Temperatūra 3°C
Drėgmė 87%
Slėgis 1020 hPa
Matomumas: 16.1 km
Giedras dangus

METAR: KOSU 151053Z 00000KT 10SM CLR 03/01 A3012 RMK AO2 SLP203 T00330011

Laikas: 07:49 (11:49 UTC)


TAF: trūkstamas

Orai ataskaitas ir orų prognozės (METAR, TAF).

turimą stotys yra geltonos ir raudonos taškus žemėlapyje.

Perkelti pele per norėdami pamatyti stoties vardą.

Tada spustelėkite, norėdami matyti oro stebėjimo ir prognozės.

Norėdami pakeisti žemėlapį: spustelėkite ant žalios mygtukų su juodo kryžiaus žemyn,; žalią mygtuką su brūkšneliu, jei norite nutolinti; arba žalių rodyklių gretimoms žemėlapius.


METAR-TAF: